Pinedale, WY

2:54 PM MDT on July 28, 2014 (GMT -0600)
Wenz (KPNA) Elev 7087 ft | 42.80 °N, 109.81 °W | Change Station

Current weather conditions updated 19 minutes ago

Scattered Clouds
Scattered Clouds
81 °F
Feels Like 81 °F
N
5
Wind Variable Wind from North

Today is forecast to be nearly the same temperature as yesterday.

Today
High -- | Low -- °F
--% Chance of Precip.
Yesterday
High -- | Low -- °F
Precip. -- in
6:06 AM 8:44 PM
Waxing Crescent, 3% visible
Pressure 30.37 in
Visibility 10.0 miles
Clouds Scattered Clouds 12000 ft
Dew Point 32 °F
Humidity 17%
Rainfall 0.00 in
Snow Depth Not available.
UV 9 out of 12
Pollen 6.80 out of 12
Air Quality Not available.
Flu Activity Not available.
METAR KPNA 282035Z AUTO 36004KT 10SM SCT120 27/00 A3037 RMK AO2

More Conditions Fewer Conditions

Pressure 30.37 in
Visibility 10.0 miles
Clouds Scattered Clouds 12000 ft
Dew Point 32 °F
Humidity 17%
Rainfall 0.00 in
Snow Depth Not available.
UV 9 out of 12
Pollen 6.80 out of 12
Air Quality Not available.
Flu Activity Not available.
METAR KPNA 282035Z AUTO 36004KT 10SM SCT120 27/00 A3037 RMK AO2

More Conditions Fewer Conditions

10-Day Weather Forecast

Almanac

Astronomy

Jul. 28, 2014 Rise Set
Actual Time 6:06 AM MDT 8:44 PM MDT
Civil Twilight 5:34 AM MDT 9:17 PM MDT
Nautical Twilight 4:53 AM MDT 9:57 PM MDT
Astronomical Twilight 4:06 AM MDT 10:44 PM MDT
Moon 7:55 AM MDT 9:23 PM MDT
Length of Visible Light 15h 43m
Length of Day
14h 38m
Tomorrow will be 2m 7s shorter.
Waxing Crescent, 3% of the Moon is Illuminated
Today
Waxing Crescent
Aug 3
First Quarter
Aug 10
Full
Aug 17
Last Quarter
Aug 25
New

Today's Extremes

State Highs State Lows

Community

WunderPhotos

Upload Photos

1,738,488 photos uploaded!

Nearby

Snow Depth

Station Depth Elevation
Loomis Park 0 in 8240 ft
Gunsight Pass 1 in 9820 ft
Blind Bull Summit 0 in 8900 ft
Willow Creek 0 in 8450 ft
Salt River Summit 0 in 7600 ft

Earthquake Activity

City Distance Mag. Time & Date
No recent earthquake activity has been reported nearby.
Minimum magnitude displayed is 2.5.

Coastal Water Temperatures

Place Temperature
No Stations Reporting

Nearby Weather Stations

Station Location Temp. Heat Index Dew Point Humidity Wind Precip. Elev Updated Type
HADS PINEDALE 1 NE WY, Pinedale, WY 82 °F 80 °F - - North  at  - 0.00 in / hr 7310 ft 2:00 PM MDT MADIS
HADS BOULDER LAKE NEAR PINEDALE 13E WY, Boulder, WY 79 °F 77 °F - - North  at  - 0.00 in / hr 7350 ft 2:00 PM MDT MADIS
APRSWXNET Daniel WY , Daniel, WY 81 °F 79 °F 42 °F 25% SW  at  6 mph 0.00 in / hr 7461 ft 2:33 PM MDT MADIS
Little Piney Subdivision, Big Piney, WY 86.7 °F 83 °F 30 °F 13% South  at  4.0 mph 0.00 in / hr 7044 ft 2:54 PM MDT Normal
RAWS HALF MOON WY, Pinedale, WY 76 °F 76 °F 32 °F 20% WNW  at  5 mph 0.00 in / hr 8529 ft 2:26 PM MDT MADIS
Marbleton, WY 87.4 °F 84 °F 12 °F 6% NNE  at  3.0 mph 0.00 in / hr 6896 ft 2:54 PM MDT Rapid Fire

Show More Stations Show Fewer Stations